createdAt,value
2022-10-06T00:00:56.944Z,18.74
2022-10-06T00:01:57.133Z,18.74
2022-10-06T00:02:57.350Z,18.75
2022-10-06T00:03:57.473Z,18.74
2022-10-06T00:04:57.635Z,18.74
2022-10-06T00:05:57.874Z,18.73
2022-10-06T00:06:57.994Z,18.71
2022-10-06T00:07:58.196Z,18.68
2022-10-06T00:08:58.354Z,18.70
2022-10-06T00:09:58.514Z,18.70
2022-10-06T00:10:58.696Z,18.68
2022-10-06T00:11:58.854Z,18.65
2022-10-06T00:12:59.013Z,18.65
2022-10-06T00:13:59.204Z,18.63
2022-10-06T00:14:59.376Z,18.63
2022-10-06T00:15:59.589Z,18.62
2022-10-06T00:16:59.694Z,18.62
2022-10-06T00:17:59.885Z,18.63
2022-10-06T00:19:00.044Z,18.63
2022-10-06T00:20:00.245Z,18.62
2022-10-06T00:21:00.415Z,18.63
2022-10-06T00:22:00.574Z,18.62
2022-10-06T00:23:00.737Z,18.63
2022-10-06T00:24:00.897Z,18.60
2022-10-06T00:25:01.054Z,18.60
2022-10-06T00:26:01.264Z,18.62
2022-10-06T00:27:01.426Z,18.62
2022-10-06T00:28:01.650Z,18.62
2022-10-06T00:29:01.773Z,18.62
2022-10-06T00:30:01.935Z,18.63
2022-10-06T00:31:02.186Z,18.60
2022-10-06T00:32:02.288Z,18.65
2022-10-06T00:33:02.447Z,18.68
2022-10-06T00:34:02.649Z,18.71
2022-10-06T00:35:02.813Z,18.75
2022-10-06T00:36:02.988Z,18.78
2022-10-06T00:37:03.228Z,18.80
2022-10-06T00:38:03.323Z,18.84
2022-10-06T00:39:03.476Z,18.89
2022-10-06T00:40:03.667Z,18.93
2022-10-06T00:41:03.847Z,18.96
2022-10-06T00:42:04.005Z,18.99
2022-10-06T00:43:04.165Z,19.04
2022-10-06T00:44:04.355Z,19.09
2022-10-06T00:45:04.517Z,19.14
2022-10-06T00:46:04.754Z,19.16
2022-10-06T00:47:04.836Z,19.18
2022-10-06T00:48:05.036Z,19.19
2022-10-06T00:49:05.187Z,19.22
2022-10-06T00:50:05.395Z,19.26
2022-10-06T00:51:05.566Z,19.27
2022-10-06T00:52:05.746Z,19.33
2022-10-06T00:53:05.905Z,19.34
2022-10-06T00:54:06.096Z,19.39
2022-10-06T00:55:06.256Z,19.40
2022-10-06T00:56:06.436Z,19.41
2022-10-06T00:57:06.650Z,19.45
2022-10-06T00:58:06.782Z,19.48
2022-10-06T00:59:06.925Z,19.51
2022-10-06T01:00:07.076Z,19.52
2022-10-06T01:01:07.301Z,19.55
2022-10-06T01:02:07.426Z,19.56
2022-10-06T01:03:07.713Z,19.58
2022-10-06T01:04:07.777Z,19.64
2022-10-06T01:05:07.926Z,19.64
2022-10-06T01:06:08.137Z,19.64
2022-10-06T01:07:08.287Z,19.63
2022-10-06T01:08:08.499Z,19.64
2022-10-06T01:09:08.660Z,19.64
2022-10-06T01:10:08.808Z,19.64
2022-10-06T01:11:09.017Z,19.64
2022-10-06T01:12:09.177Z,19.63
2022-10-06T01:13:09.328Z,19.62
2022-10-06T01:14:09.528Z,19.59
2022-10-06T01:15:09.678Z,19.58
2022-10-06T01:16:09.973Z,19.58
2022-10-06T01:17:10.058Z,19.56
2022-10-06T01:18:10.217Z,19.58
2022-10-06T01:19:10.377Z,19.59
2022-10-06T01:20:10.538Z,19.62
2022-10-06T01:21:10.708Z,19.64
2022-10-06T01:22:10.868Z,19.64
2022-10-06T01:23:11.021Z,19.67
2022-10-06T01:24:11.218Z,19.69
2022-10-06T01:25:11.379Z,19.73
2022-10-06T01:26:11.587Z,19.73
2022-10-06T01:27:11.738Z,19.77
2022-10-06T01:28:11.986Z,19.81
2022-10-06T01:29:12.119Z,19.82
2022-10-06T01:30:12.278Z,19.82
2022-10-06T01:31:12.497Z,19.84
2022-10-06T01:32:12.639Z,19.86
2022-10-06T01:33:12.795Z,19.86
2022-10-06T01:34:12.988Z,19.86
2022-10-06T01:35:13.148Z,19.85
2022-10-06T01:36:13.326Z,19.88
2022-10-06T01:37:13.481Z,19.86
2022-10-06T01:38:13.646Z,19.84
2022-10-06T01:39:13.800Z,19.84
2022-10-06T01:40:13.988Z,19.79
2022-10-06T01:41:14.168Z,19.77
2022-10-06T01:42:14.324Z,19.76
2022-10-06T01:43:14.479Z,19.76
2022-10-06T01:44:14.640Z,19.73
2022-10-06T01:45:14.810Z,19.69
2022-10-06T01:46:15.034Z,19.66
2022-10-06T01:47:15.139Z,19.63
2022-10-06T01:48:15.330Z,19.62
2022-10-06T01:49:15.488Z,19.58
2022-10-06T01:50:15.652Z,19.55
2022-10-06T01:51:15.820Z,19.54
2022-10-06T01:52:15.978Z,19.52
2022-10-06T01:53:16.170Z,19.51
2022-10-06T01:54:16.327Z,19.49
2022-10-06T01:55:16.527Z,19.54
2022-10-06T01:56:16.699Z,19.51
2022-10-06T01:57:16.849Z,19.51
2022-10-06T01:58:17.010Z,19.49
2022-10-06T01:59:17.191Z,19.48
2022-10-06T02:00:17.341Z,19.48
2022-10-06T02:01:17.570Z,19.47
2022-10-06T02:02:17.719Z,19.47
2022-10-06T02:03:17.891Z,19.45
2022-10-06T02:04:18.103Z,19.44
2022-10-06T02:05:18.228Z,19.44
2022-10-06T02:06:18.443Z,19.44
2022-10-06T02:07:18.559Z,19.44
2022-10-06T02:08:18.720Z,19.39
2022-10-06T02:09:18.877Z,19.40
2022-10-06T02:10:19.062Z,19.40
2022-10-06T02:11:19.221Z,19.37
2022-10-06T02:12:19.373Z,19.37
2022-10-06T02:13:19.570Z,19.36
2022-10-06T02:14:19.733Z,19.34
2022-10-06T02:15:19.890Z,19.31
2022-10-06T02:16:20.078Z,19.31
2022-10-06T02:17:20.249Z,19.30
2022-10-06T02:18:20.401Z,19.29
2022-10-06T02:19:20.592Z,19.26
2022-10-06T02:20:20.753Z,19.27
2022-10-06T02:21:20.912Z,19.26
2022-10-06T02:22:21.071Z,19.24
2022-10-06T02:23:21.262Z,19.22
2022-10-06T02:24:21.421Z,19.22
2022-10-06T02:25:21.589Z,19.21
2022-10-06T02:26:21.750Z,19.19
2022-10-06T02:27:21.911Z,19.19
2022-10-06T02:28:22.125Z,19.16
2022-10-06T02:29:22.231Z,19.15
2022-10-06T02:30:22.466Z,19.15
2022-10-06T02:31:22.620Z,19.12
2022-10-06T02:32:22.753Z,19.11
2022-10-06T02:33:22.911Z,19.09
2022-10-06T02:34:23.062Z,19.11
2022-10-06T02:35:23.263Z,19.12
2022-10-06T02:36:23.442Z,19.08
2022-10-06T02:37:23.604Z,19.08
2022-10-06T02:38:23.761Z,19.07
2022-10-06T02:39:23.951Z,19.04
2022-10-06T02:40:24.132Z,19.02
2022-10-06T02:41:24.281Z,18.99
2022-10-06T02:42:24.442Z,19.00
2022-10-06T02:43:24.639Z,19.00
2022-10-06T02:44:24.791Z,18.99
2022-10-06T02:45:25.012Z,18.98
2022-10-06T02:46:25.209Z,19.02
2022-10-06T02:47:25.342Z,19.02
2022-10-06T02:48:25.778Z,19.00
2022-10-06T02:49:25.691Z,19.04
2022-10-06T02:50:25.872Z,19.07
2022-10-06T02:51:26.033Z,19.09
2022-10-06T02:52:26.192Z,19.09
2022-10-06T02:53:26.354Z,19.11
2022-10-06T02:54:26.512Z,19.14
2022-10-06T02:55:26.703Z,19.15
2022-10-06T02:56:26.871Z,19.18
2022-10-06T02:57:27.032Z,19.19
2022-10-06T02:58:27.518Z,19.22
2022-10-06T02:59:27.408Z,19.24
2022-10-06T03:00:27.555Z,19.26
2022-10-06T03:01:27.764Z,19.29
2022-10-06T03:02:27.945Z,19.30
2022-10-06T03:03:28.052Z,19.29
2022-10-06T03:04:28.213Z,19.34
2022-10-06T03:05:28.433Z,19.39
2022-10-06T03:06:28.552Z,19.40
2022-10-06T03:07:28.763Z,19.44
2022-10-06T03:08:29.313Z,19.48
2022-10-06T03:09:29.102Z,19.49
2022-10-06T03:10:29.266Z,19.52
2022-10-06T03:11:29.423Z,19.56
2022-10-06T03:12:29.599Z,19.58
2022-10-06T03:13:29.775Z,19.59
2022-10-06T03:14:29.934Z,19.63
2022-10-06T03:15:30.142Z,19.64
2022-10-06T03:16:30.335Z,19.66
2022-10-06T03:17:30.473Z,19.66
2022-10-06T03:18:31.229Z,19.67
2022-10-06T03:19:30.813Z,19.70
2022-10-06T03:20:30.973Z,19.74
2022-10-06T03:21:31.134Z,19.76
2022-10-06T03:22:31.293Z,19.77
2022-10-06T03:23:31.509Z,19.79
2022-10-06T03:24:31.654Z,19.84
2022-10-06T03:25:31.855Z,19.88
2022-10-06T03:26:32.013Z,19.89
2022-10-06T03:27:32.195Z,19.92
2022-10-06T03:28:32.843Z,19.94
2022-10-06T03:29:32.524Z,19.95
2022-10-06T03:30:32.703Z,19.92
2022-10-06T03:31:32.871Z,19.94
2022-10-06T03:32:33.025Z,19.94
2022-10-06T03:33:33.224Z,19.92
2022-10-06T03:34:33.382Z,19.91
2022-10-06T03:35:33.575Z,19.89
2022-10-06T03:36:33.744Z,19.91
2022-10-06T03:37:33.905Z,19.88
2022-10-06T03:38:34.059Z,19.88
2022-10-06T03:39:34.230Z,19.86
2022-10-06T03:40:34.396Z,19.85
2022-10-06T03:41:34.554Z,19.85
2022-10-06T03:42:34.715Z,19.82
2022-10-06T03:43:34.904Z,19.81
2022-10-06T03:44:35.123Z,19.84
2022-10-06T03:45:35.253Z,19.84
2022-10-06T03:46:35.479Z,19.85
2022-10-06T03:47:35.586Z,19.84
2022-10-06T03:48:35.746Z,19.82
2022-10-06T03:49:35.905Z,19.84
2022-10-06T03:50:36.094Z,19.84
2022-10-06T03:51:36.255Z,19.84
2022-10-06T03:52:36.416Z,19.84
2022-10-06T03:53:36.605Z,19.86
2022-10-06T03:54:36.766Z,19.86
2022-10-06T03:55:36.935Z,19.88
2022-10-06T03:56:37.126Z,19.86
2022-10-06T03:57:37.288Z,19.91
2022-10-06T03:58:37.454Z,19.91
2022-10-06T03:59:37.606Z,19.89
2022-10-06T04:00:37.875Z,19.89
2022-10-06T04:01:38.044Z,19.91
2022-10-06T04:02:38.107Z,19.92
2022-10-06T04:03:38.306Z,19.92
2022-10-06T04:04:38.469Z,19.94
2022-10-06T04:05:38.677Z,19.91
2022-10-06T04:06:38.839Z,19.88
2022-10-06T04:07:38.997Z,19.89
2022-10-06T04:08:39.157Z,19.89
2022-10-06T04:09:39.317Z,19.91
2022-10-06T04:10:39.487Z,19.91
2022-10-06T04:11:39.647Z,19.94
2022-10-06T04:12:39.807Z,19.95
2022-10-06T04:13:39.978Z,19.92
2022-10-06T04:14:40.139Z,19.88
2022-10-06T04:15:40.317Z,19.86
2022-10-06T04:16:40.566Z,19.85
2022-10-06T04:17:40.659Z,19.85
2022-10-06T04:18:40.827Z,19.84
2022-10-06T04:19:40.989Z,19.84
2022-10-06T04:20:41.168Z,19.81
2022-10-06T04:21:41.346Z,19.81
2022-10-06T04:22:41.499Z,19.84
2022-10-06T04:23:41.687Z,19.85
2022-10-06T04:24:41.879Z,19.84
2022-10-06T04:25:42.087Z,19.85
2022-10-06T04:26:42.249Z,19.81
2022-10-06T04:27:42.407Z,19.81
2022-10-06T04:28:42.584Z,19.79
2022-10-06T04:29:42.728Z,19.79
2022-10-06T04:30:42.917Z,19.77
2022-10-06T04:31:43.173Z,19.77
2022-10-06T04:32:43.249Z,19.77
2022-10-06T04:33:43.447Z,19.79
2022-10-06T04:34:43.596Z,19.79
2022-10-06T04:35:43.818Z,19.77
2022-10-06T04:36:43.950Z,19.73
2022-10-06T04:37:44.139Z,19.73
2022-10-06T04:38:44.298Z,19.71
2022-10-06T04:39:44.489Z,19.70
2022-10-06T04:40:44.688Z,19.69
2022-10-06T04:41:44.848Z,19.64
2022-10-06T04:42:45.007Z,19.59
2022-10-06T04:43:45.199Z,19.58
2022-10-06T04:44:45.389Z,19.58
2022-10-06T04:45:45.692Z,19.55
2022-10-06T04:46:45.991Z,19.56
2022-10-06T04:47:45.936Z,19.55
2022-10-06T04:48:46.089Z,19.52
2022-10-06T04:49:46.278Z,19.52
2022-10-06T04:50:46.482Z,19.51
2022-10-06T04:51:46.639Z,19.49
2022-10-06T04:52:46.792Z,19.49
2022-10-06T04:53:46.979Z,19.48
2022-10-06T04:54:47.150Z,19.48
2022-10-06T04:55:47.357Z,19.47
2022-10-06T04:56:47.509Z,19.45
2022-10-06T04:57:47.669Z,19.45
2022-10-06T04:58:47.829Z,19.40
2022-10-06T04:59:48.001Z,19.39
2022-10-06T05:00:48.228Z,19.39
2022-10-06T05:01:48.377Z,19.41
2022-10-06T05:02:48.520Z,19.39
2022-10-06T05:03:48.701Z,19.33
2022-10-06T05:04:48.870Z,19.30
2022-10-06T05:05:49.062Z,19.31
2022-10-06T05:06:49.200Z,19.31
2022-10-06T05:07:49.379Z,19.29
2022-10-06T05:08:49.566Z,19.30
2022-10-06T05:09:49.740Z,19.29
2022-10-06T05:10:49.930Z,19.30
2022-10-06T05:11:50.080Z,19.30
2022-10-06T05:12:50.240Z,19.33
2022-10-06T05:13:50.420Z,19.31
2022-10-06T05:14:50.601Z,19.33
2022-10-06T05:15:50.803Z,19.34
2022-10-06T05:16:51.010Z,19.34
2022-10-06T05:17:51.121Z,19.34
2022-10-06T05:18:51.307Z,19.33
2022-10-06T05:19:51.500Z,19.34
2022-10-06T05:20:51.672Z,19.34
2022-10-06T05:21:51.821Z,19.34
2022-10-06T05:22:51.972Z,19.36
2022-10-06T05:23:52.149Z,19.36
2022-10-06T05:24:52.300Z,19.36
2022-10-06T05:25:52.508Z,19.34
2022-10-06T05:26:52.652Z,19.36
2022-10-06T05:27:52.832Z,19.36
2022-10-06T05:28:53.037Z,19.34
2022-10-06T05:29:53.191Z,19.36
2022-10-06T05:30:53.391Z,19.39
2022-10-06T05:31:53.575Z,19.36
2022-10-06T05:32:53.704Z,19.34
2022-10-06T05:33:53.882Z,19.36
2022-10-06T05:34:54.081Z,19.36
2022-10-06T05:35:54.242Z,19.33
2022-10-06T05:36:54.429Z,19.36
2022-10-06T05:37:54.601Z,19.33
2022-10-06T05:38:54.802Z,19.31
2022-10-06T05:39:54.971Z,19.34
2022-10-06T05:40:55.160Z,19.31
2022-10-06T05:41:55.321Z,19.34
2022-10-06T05:42:55.462Z,19.30
2022-10-06T05:43:55.644Z,19.27
2022-10-06T05:44:55.825Z,19.26
2022-10-06T05:45:56.082Z,19.24
2022-10-06T05:46:56.162Z,19.26
2022-10-06T05:47:56.342Z,19.24
2022-10-06T05:48:56.491Z,19.21
2022-10-06T05:49:56.676Z,19.19
2022-10-06T05:50:56.872Z,19.18
2022-10-06T05:51:57.012Z,19.14
2022-10-06T05:52:57.192Z,19.11
2022-10-06T05:53:57.365Z,19.11
2022-10-06T05:54:57.542Z,19.04
2022-10-06T05:55:57.756Z,18.99
2022-10-06T05:56:57.892Z,18.95
2022-10-06T05:57:58.082Z,18.89
2022-10-06T05:58:58.238Z,18.86
2022-10-06T05:59:58.423Z,18.83
2022-10-06T06:00:58.606Z,18.80
2022-10-06T06:01:58.800Z,18.77
2022-10-06T06:02:58.960Z,18.74
2022-10-06T06:03:59.084Z,18.74
2022-10-06T06:04:59.244Z,18.73
2022-10-06T06:05:59.451Z,18.68
2022-10-06T06:06:59.613Z,18.63
2022-10-06T06:07:59.793Z,18.65
2022-10-06T06:08:59.975Z,18.62
2022-10-06T06:10:00.154Z,18.62
2022-10-06T06:11:00.343Z,18.60
2022-10-06T06:12:00.564Z,18.60
2022-10-06T06:13:00.684Z,18.60
2022-10-06T06:14:00.864Z,18.56
2022-10-06T06:15:01.043Z,18.53
2022-10-06T06:16:01.243Z,18.55
2022-10-06T06:17:01.464Z,18.55
2022-10-06T06:18:01.633Z,18.53
2022-10-06T06:19:01.777Z,18.55
2022-10-06T06:20:01.956Z,18.58
2022-10-06T06:21:02.153Z,18.53
2022-10-06T06:22:02.324Z,18.52
2022-10-06T06:23:02.494Z,18.50
2022-10-06T06:24:02.674Z,18.52
2022-10-06T06:25:02.854Z,18.47
2022-10-06T06:26:03.044Z,18.52
2022-10-06T06:27:03.196Z,18.53
2022-10-06T06:28:03.414Z,18.55
2022-10-06T06:29:03.563Z,18.53
2022-10-06T06:30:03.735Z,18.55
2022-10-06T06:31:03.988Z,18.58
2022-10-06T06:32:04.091Z,18.60
2022-10-06T06:33:04.273Z,18.63
2022-10-06T06:34:04.444Z,18.68
2022-10-06T06:35:04.624Z,18.73
2022-10-06T06:36:04.821Z,18.78
2022-10-06T06:37:08.470Z,18.86
2022-10-06T06:38:05.144Z,18.92
2022-10-06T06:39:05.325Z,18.95
2022-10-06T06:40:05.509Z,18.99
2022-10-06T06:41:05.715Z,19.09
2022-10-06T06:42:05.855Z,19.21
2022-10-06T06:43:06.034Z,19.30
2022-10-06T06:44:06.214Z,19.36
2022-10-06T06:45:06.414Z,19.37
2022-10-06T06:46:06.598Z,19.41
2022-10-06T06:47:06.734Z,19.41
2022-10-06T06:48:06.911Z,19.40
2022-10-06T06:49:07.096Z,19.39
2022-10-06T06:50:07.285Z,19.37
2022-10-06T06:51:07.433Z,19.34
2022-10-06T06:52:07.613Z,19.34
2022-10-06T06:53:08.190Z,19.36
2022-10-06T06:54:07.995Z,19.36
2022-10-06T06:55:08.168Z,19.36
2022-10-06T06:56:08.306Z,19.37
2022-10-06T06:57:08.488Z,19.37
2022-10-06T06:58:08.666Z,19.36
2022-10-06T06:59:08.856Z,19.37
2022-10-06T07:00:09.046Z,19.36
2022-10-06T07:01:09.255Z,19.33
2022-10-06T07:02:09.414Z,19.30
2022-10-06T07:03:09.557Z,19.31
2022-10-06T07:04:09.745Z,19.36
2022-10-06T07:05:09.927Z,19.31
2022-10-06T07:06:10.097Z,19.30
2022-10-06T07:07:10.275Z,19.34
2022-10-06T07:08:10.455Z,19.41
2022-10-06T07:09:10.643Z,19.49
2022-10-06T07:10:10.826Z,19.56
2022-10-06T07:11:11.004Z,19.54
2022-10-06T07:12:11.175Z,19.54
2022-10-06T07:13:11.581Z,19.54
2022-10-06T07:14:11.526Z,19.52
2022-10-06T07:15:12.733Z,19.52
2022-10-06T07:16:11.938Z,19.45
2022-10-06T07:17:12.096Z,19.40
2022-10-06T07:18:12.256Z,19.45
2022-10-06T07:19:12.444Z,19.44
2022-10-06T07:20:12.638Z,19.44
2022-10-06T07:21:12.806Z,19.48
2022-10-06T07:22:12.995Z,19.55
2022-10-06T07:23:13.176Z,19.56
2022-10-06T07:24:13.350Z,19.59
2022-10-06T07:25:13.557Z,19.70
2022-10-06T07:26:13.717Z,19.88
2022-10-06T07:27:13.898Z,20.04
2022-10-06T07:28:14.163Z,20.14
2022-10-06T07:29:14.258Z,20.14
2022-10-06T07:30:14.455Z,20.19
2022-10-06T07:31:14.633Z,20.19
2022-10-06T07:32:14.787Z,20.14
2022-10-06T07:33:14.966Z,20.16
2022-10-06T07:34:15.147Z,20.18
2022-10-06T07:35:15.357Z,20.18
2022-10-06T07:36:15.496Z,20.29
2022-10-06T07:37:15.667Z,20.40
2022-10-06T07:38:15.848Z,20.59
2022-10-06T07:39:16.030Z,20.72
2022-10-06T07:40:16.228Z,20.85
2022-10-06T07:41:20.485Z,21.03
2022-10-06T07:42:16.568Z,21.15
2022-10-06T07:43:16.759Z,21.18
2022-10-06T07:44:16.946Z,21.33
2022-10-06T07:45:17.142Z,21.45
2022-10-06T07:46:17.361Z,21.54
2022-10-06T07:47:17.497Z,21.72
2022-10-06T07:48:17.680Z,21.89
2022-10-06T07:49:17.858Z,21.80
2022-10-06T07:50:18.071Z,21.72
2022-10-06T07:51:18.219Z,21.61
2022-10-06T07:52:18.359Z,21.57
2022-10-06T07:53:18.519Z,21.46
2022-10-06T07:54:18.699Z,21.39
2022-10-06T07:55:18.900Z,21.37
2022-10-06T07:56:19.079Z,21.30
2022-10-06T07:57:19.239Z,21.22
2022-10-06T07:58:19.428Z,21.27
2022-10-06T07:59:19.613Z,21.33
2022-10-06T08:00:19.839Z,21.62
2022-10-06T08:01:20.030Z,21.88
2022-10-06T08:02:20.171Z,21.95
2022-10-06T08:03:20.346Z,22.26
2022-10-06T08:04:20.480Z,22.69
2022-10-06T08:05:20.650Z,23.27
2022-10-06T08:06:20.800Z,23.71
2022-10-06T08:07:20.983Z,24.32
2022-10-06T08:08:21.149Z,24.99
2022-10-06T08:09:21.320Z,25.60
2022-10-06T08:10:21.529Z,26.34
2022-10-06T08:11:21.733Z,26.95
2022-10-06T08:12:21.860Z,27.40
2022-10-06T08:13:22.040Z,27.82
2022-10-06T08:14:22.230Z,28.17
2022-10-06T08:15:22.431Z,28.54
2022-10-06T08:16:22.692Z,28.69
2022-10-06T08:17:22.791Z,28.78
2022-10-06T08:18:44.367Z,28.82
2022-10-06T08:19:24.141Z,29.05
2022-10-06T08:20:23.316Z,29.16
2022-10-06T08:21:23.492Z,29.41
2022-10-06T08:22:23.672Z,29.81
2022-10-06T08:23:23.854Z,29.94
2022-10-06T08:24:24.033Z,30.02
2022-10-06T08:25:24.222Z,29.90
2022-10-06T08:26:24.364Z,30.10
2022-10-06T08:27:24.566Z,30.10
2022-10-06T08:28:24.767Z,30.43
2022-10-06T08:29:24.888Z,30.78
2022-10-06T08:30:25.070Z,31.03
2022-10-06T08:31:25.331Z,31.33
2022-10-06T08:32:25.427Z,31.58
2022-10-06T08:33:25.624Z,31.80
2022-10-06T08:34:25.774Z,31.77
2022-10-06T08:35:25.967Z,32.09
2022-10-06T08:36:30.913Z,32.30
2022-10-06T08:37:27.455Z,32.49
2022-10-06T08:38:26.448Z,32.77
2022-10-06T08:39:26.629Z,33.20
2022-10-06T08:40:26.827Z,33.42
2022-10-06T08:41:27.005Z,33.39
2022-10-06T08:42:27.176Z,33.40
2022-10-06T08:43:27.386Z,33.23
2022-10-06T08:44:27.527Z,32.65
2022-10-06T08:45:27.736Z,32.40
2022-10-06T08:46:27.869Z,32.12
2022-10-06T08:47:28.058Z,32.22
2022-10-06T08:48:28.247Z,32.04
2022-10-06T08:49:28.417Z,31.64
2022-10-06T08:50:28.610Z,32.00
2022-10-06T08:51:28.789Z,32.12
2022-10-06T08:52:28.968Z,32.09
2022-10-06T08:53:29.141Z,31.89
2022-10-06T08:54:29.330Z,32.40
2022-10-06T08:55:29.510Z,32.82
2022-10-06T08:56:29.683Z,32.96
2022-10-06T08:57:29.896Z,33.19
2022-10-06T08:58:30.023Z,33.64
2022-10-06T08:59:30.190Z,33.95
2022-10-06T09:00:30.372Z,34.16
2022-10-06T09:01:30.631Z,34.67
2022-10-06T09:02:30.779Z,35.15
2022-10-06T09:03:30.914Z,35.05
2022-10-06T09:04:31.081Z,34.66
2022-10-06T09:05:31.251Z,33.69
2022-10-06T09:06:31.404Z,32.53
2022-10-06T09:07:31.584Z,31.28
2022-10-06T09:08:31.753Z,30.50
2022-10-06T09:09:31.943Z,30.81
2022-10-06T09:10:32.123Z,31.46
2022-10-06T09:11:32.312Z,30.96
2022-10-06T09:12:32.492Z,30.72
2022-10-06T09:13:32.663Z,31.03
2022-10-06T09:14:32.836Z,31.49
2022-10-06T09:15:33.044Z,31.27
2022-10-06T09:16:33.229Z,31.24
2022-10-06T09:17:33.353Z,31.59
2022-10-06T09:18:49.824Z,31.05
2022-10-06T09:19:34.714Z,29.97
2022-10-06T09:20:33.895Z,29.14
2022-10-06T09:21:34.084Z,28.26
2022-10-06T09:22:34.257Z,27.49
2022-10-06T09:23:34.436Z,26.92
2022-10-06T09:24:34.598Z,26.44
2022-10-06T09:25:34.806Z,26.16
2022-10-06T09:26:34.946Z,25.75
2022-10-06T09:27:35.125Z,25.38
2022-10-06T09:28:35.380Z,24.88
2022-10-06T09:29:35.476Z,24.50
2022-10-06T09:30:35.666Z,24.91
2022-10-06T09:31:35.928Z,25.21
2022-10-06T09:32:36.016Z,25.10
2022-10-06T09:33:36.197Z,24.77
2022-10-06T09:34:36.367Z,25.23
2022-10-06T09:35:36.586Z,25.95
2022-10-06T09:36:36.741Z,26.26
2022-10-06T09:37:36.948Z,26.26
2022-10-06T09:38:37.088Z,26.34
2022-10-06T09:39:37.271Z,26.26
2022-10-06T09:40:37.442Z,26.21
2022-10-06T09:41:37.615Z,26.10
2022-10-06T09:42:37.788Z,26.13
2022-10-06T09:43:37.958Z,26.10
2022-10-06T09:44:38.109Z,26.03
2022-10-06T09:45:38.318Z,25.81
2022-10-06T09:46:38.478Z,25.54
2022-10-06T09:47:38.690Z,25.29
2022-10-06T09:48:38.900Z,25.11
2022-10-06T09:49:39.019Z,24.91
2022-10-06T09:50:39.218Z,24.61
2022-10-06T09:51:39.359Z,24.45
2022-10-06T09:52:39.552Z,24.33
2022-10-06T09:53:39.729Z,24.14
2022-10-06T09:54:39.910Z,24.03
2022-10-06T09:55:40.119Z,23.83
2022-10-06T09:56:40.260Z,23.63
2022-10-06T09:57:40.441Z,23.40
2022-10-06T09:58:40.620Z,23.24
2022-10-06T09:59:40.800Z,23.05
2022-10-06T10:00:41.022Z,22.93
2022-10-06T10:01:41.170Z,22.76
2022-10-06T10:02:41.406Z,22.62
2022-10-06T10:03:44.547Z,22.50
2022-10-06T10:04:42.701Z,22.39
2022-10-06T10:05:41.874Z,22.29
2022-10-06T10:06:42.034Z,22.18
2022-10-06T10:07:42.211Z,22.13
2022-10-06T10:08:42.392Z,22.07
2022-10-06T10:09:42.612Z,22.02
2022-10-06T10:10:42.752Z,21.99
2022-10-06T10:11:42.932Z,21.96
2022-10-06T10:12:43.122Z,21.95
2022-10-06T10:13:43.307Z,21.95
2022-10-06T10:14:43.501Z,21.95
2022-10-06T10:15:43.733Z,21.95
2022-10-06T10:16:43.811Z,21.92
2022-10-06T10:17:43.994Z,21.92
2022-10-06T10:18:44.180Z,21.95
2022-10-06T10:19:44.372Z,21.93
2022-10-06T10:20:44.542Z,21.89
2022-10-06T10:21:44.692Z,21.82
2022-10-06T10:22:44.862Z,21.88
2022-10-06T10:23:45.044Z,21.91
2022-10-06T10:24:45.244Z,21.95
2022-10-06T10:25:45.386Z,21.96
2022-10-06T10:26:45.571Z,21.98
2022-10-06T10:27:45.759Z,21.99
2022-10-06T10:28:45.933Z,21.95
2022-10-06T10:29:46.123Z,21.91
2022-10-06T10:30:46.277Z,21.93
2022-10-06T10:31:46.494Z,21.92
2022-10-06T10:32:46.643Z,21.91
2022-10-06T10:33:59.165Z,21.93
2022-10-06T10:34:48.087Z,21.96
2022-10-06T10:35:47.172Z,21.98
2022-10-06T10:36:47.354Z,21.98
2022-10-06T10:37:47.536Z,21.96
2022-10-06T10:38:47.733Z,21.98
2022-10-06T10:39:47.913Z,22.04
2022-10-06T10:40:48.063Z,22.08
2022-10-06T10:41:48.244Z,22.13
2022-10-06T10:42:48.435Z,22.08
2022-10-06T10:43:48.610Z,22.07
2022-10-06T10:44:48.825Z,22.07
2022-10-06T10:45:48.955Z,22.06
2022-10-06T10:46:49.198Z,22.11
2022-10-06T10:47:49.304Z,22.18
2022-10-06T10:48:49.526Z,22.29
2022-10-06T10:49:49.664Z,22.38
2022-10-06T10:50:49.835Z,22.47
2022-10-06T10:51:49.984Z,22.57
2022-10-06T10:52:50.170Z,22.63
2022-10-06T10:53:50.346Z,22.70
2022-10-06T10:54:50.538Z,22.75
2022-10-06T10:55:50.690Z,22.81
2022-10-06T10:56:50.873Z,22.85
2022-10-06T10:57:51.067Z,22.88
2022-10-06T10:58:51.216Z,22.96
2022-10-06T10:59:51.386Z,22.99
2022-10-06T11:00:51.580Z,23.06
2022-10-06T11:01:51.789Z,23.10
2022-10-06T11:02:51.906Z,23.10
2022-10-06T11:03:52.087Z,23.12
2022-10-06T11:04:52.286Z,23.12
2022-10-06T11:05:52.429Z,23.09
2022-10-06T11:06:52.625Z,23.03
2022-10-06T11:07:52.766Z,22.94
2022-10-06T11:08:52.967Z,22.88
2022-10-06T11:09:53.127Z,22.85
2022-10-06T11:10:53.294Z,22.84
2022-10-06T11:11:53.438Z,22.84
2022-10-06T11:12:53.627Z,22.85
2022-10-06T11:13:53.808Z,22.84
2022-10-06T11:14:54.019Z,22.84
2022-10-06T11:15:54.226Z,22.81
2022-10-06T11:16:54.358Z,22.80
2022-10-06T11:17:54.519Z,22.84
2022-10-06T11:18:54.719Z,22.84
2022-10-06T11:19:54.907Z,22.81
2022-10-06T11:20:55.068Z,22.81
2022-10-06T11:21:55.212Z,22.78
2022-10-06T11:22:55.388Z,22.69
2022-10-06T11:23:55.579Z,22.66
2022-10-06T11:24:56.161Z,22.62
2022-10-06T11:25:55.919Z,22.59
2022-10-06T11:26:56.141Z,22.55
2022-10-06T11:27:56.447Z,22.55
2022-10-06T11:28:56.459Z,22.53
2022-10-06T11:29:56.944Z,22.53
2022-10-06T11:30:56.821Z,22.54
2022-10-06T11:31:57.083Z,22.53
2022-10-06T11:32:57.180Z,22.57
2022-10-06T11:33:57.360Z,22.62
2022-10-06T11:34:57.559Z,22.66
2022-10-06T11:35:57.730Z,22.66
2022-10-06T11:36:57.899Z,22.69
2022-10-06T11:37:58.080Z,22.70
2022-10-06T11:38:58.260Z,22.69
2022-10-06T11:39:58.716Z,22.63
2022-10-06T11:40:58.646Z,22.59
2022-10-06T11:41:58.803Z,22.57
2022-10-06T11:42:58.970Z,22.57
2022-10-06T11:43:59.165Z,22.57
2022-10-06T11:44:59.745Z,22.62
2022-10-06T11:45:59.562Z,22.65
2022-10-06T11:46:59.680Z,22.66
2022-10-06T11:47:59.861Z,22.68
2022-10-06T11:49:00.041Z,22.72
2022-10-06T11:50:00.245Z,22.75
2022-10-06T11:51:00.391Z,22.78
2022-10-06T11:52:04.521Z,22.80
2022-10-06T11:53:00.741Z,22.87
2022-10-06T11:54:00.927Z,22.90
2022-10-06T11:55:01.398Z,22.85
2022-10-06T11:56:01.286Z,22.85
2022-10-06T11:57:01.462Z,22.87
2022-10-06T11:58:05.495Z,22.88
2022-10-06T11:59:02.802Z,22.91
2022-10-06T12:00:02.002Z,22.93
2022-10-06T12:01:02.198Z,22.96
2022-10-06T12:02:02.445Z,22.99
2022-10-06T12:03:02.602Z,23.02
2022-10-06T12:04:02.703Z,23.02
2022-10-06T12:05:02.870Z,23.00
2022-10-06T12:06:03.002Z,22.96
2022-10-06T12:07:03.184Z,22.91
2022-10-06T12:08:03.363Z,22.84
2022-10-06T12:09:03.542Z,22.78
2022-10-06T12:10:03.752Z,22.81
2022-10-06T12:11:03.893Z,22.83
2022-10-06T12:12:04.073Z,22.83
2022-10-06T12:13:11.201Z,22.85
2022-10-06T12:15:37.953Z,22.88
2022-10-06T12:17:05.154Z,22.85
2022-10-06T12:17:11.740Z,22.75
2022-10-06T12:18:06.134Z,22.75
2022-10-06T12:19:05.322Z,22.70
2022-10-06T12:20:05.514Z,22.65
2022-10-06T12:21:05.694Z,22.60
2022-10-06T12:22:05.885Z,22.57
2022-10-06T12:23:06.034Z,22.55
2022-10-06T12:24:06.257Z,22.55
2022-10-06T12:25:06.413Z,22.57
2022-10-06T12:26:06.590Z,22.55
2022-10-06T12:27:06.764Z,22.59
2022-10-06T12:28:07.006Z,22.66
2022-10-06T12:29:07.135Z,22.66
2022-10-06T12:30:07.334Z,22.69
2022-10-06T12:31:07.600Z,22.73
2022-10-06T12:32:07.684Z,22.75
2022-10-06T12:33:07.865Z,22.76
2022-10-06T12:34:08.046Z,22.78
2022-10-06T12:35:08.248Z,22.81
2022-10-06T12:36:08.415Z,22.84
2022-10-06T12:37:08.596Z,22.87
2022-10-06T12:38:08.776Z,22.87
2022-10-06T12:39:08.956Z,22.87
2022-10-06T12:40:09.151Z,22.85
2022-10-06T12:41:09.298Z,22.85
2022-10-06T12:42:09.488Z,22.85
2022-10-06T12:43:09.642Z,22.85
2022-10-06T12:44:09.823Z,22.84
2022-10-06T12:45:10.018Z,22.85
2022-10-06T12:46:10.282Z,22.88
2022-10-06T12:47:10.386Z,22.88
2022-10-06T12:48:10.557Z,22.91
2022-10-06T12:49:10.747Z,22.91
2022-10-06T12:50:10.995Z,22.93
2022-10-06T12:51:11.106Z,22.91
2022-10-06T12:52:11.285Z,22.94
2022-10-06T12:53:11.483Z,22.90
2022-10-06T12:54:11.628Z,22.88
2022-10-06T12:55:11.835Z,22.84
2022-10-06T12:56:11.975Z,22.78